Flight Number: AVA1855 Duration: 0:50
Departure: Athens Eleftherios Venizelos (LGAV) at 16:50 Distance: 213.841 Nm
Arrival: Kerkyra (Corfu) (LGKR) at 17:40 Equipment: CRJ700

Weather Information
Athens Eleftherios Venizelos International Airport, Greece (LGAV) 37-56N 023-56E Jan 16, 2021 - 11:50 AM EST / 2021.01.16 1650 UTC
Wind: from the N (350 degrees) at 13 MPH (11 KT):0
Visibility: greater than 7 mile(s):0
Sky conditions: mostly cloudy Temperature: 41 F (5 C) Dew Point: 32 F (0 C) Relative Humidity: 70% Pressure (altimeter): 29.77 in. Hg (1008 hPa)
ob: LGAV 161650Z 35011KT 9999 FEW020 BKN030 05/M00 Q1008 NOSIG cycle: 17
Sunrise: 05:41 Sunset: 15:27 (UTC)

Kerkyra Airport , Greece (LGKR) 39-37N 019-55E 4M Jan 16, 2021 - 11:50 AM EST / 2021.01.16 1650 UTC
Wind: from the WNW (300 degrees) at 16 MPH (14 KT) gusting to 28 MPH (24 KT):0
Visibility: greater than 7 mile(s):0
Sky conditions: partly cloudy Temperature: 44 F (7 C) Dew Point: 21 F (-6 C) Relative Humidity: 39% Pressure (altimeter): 29.85 in. Hg (1011 hPa)
ob: LGKR 161650Z 30014G24KT 9999 SCT040 07/M06 Q1011 NOSIG cycle: 17
Sunrise: 06:01 Sunset: 15:38 (UTC)

TAF:2021/01/16 18:12 TAF LGKR 161700Z 1618/1718 35015KT 9999 SCT040 BECMG 1710/1712 SCT040 OVC080

This route has never been flown.

Route map